createdAt,value
2022-12-01T00:02:08.333Z,45.95
2022-12-01T00:04:38.855Z,45.78
2022-12-01T00:07:09.084Z,46.13
2022-12-01T00:09:56.006Z,45.85
2022-12-01T00:12:28.618Z,45.91
2022-12-01T00:15:02.670Z,45.80
2022-12-01T00:17:33.248Z,45.68
2022-12-01T00:20:03.249Z,45.70
2022-12-01T00:22:33.819Z,45.78
2022-12-01T00:25:03.773Z,45.81
2022-12-01T00:27:35.214Z,45.91
2022-12-01T00:30:05.431Z,45.90
2022-12-01T00:32:35.365Z,45.55
2022-12-01T00:35:07.551Z,45.88
2022-12-01T00:37:39.084Z,45.89
2022-12-01T00:40:11.875Z,45.90
2022-12-01T00:42:43.519Z,46.15
2022-12-01T00:45:14.615Z,46.07
2022-12-01T00:47:45.204Z,45.82
2022-12-01T00:50:15.335Z,45.85
2022-12-01T00:52:45.863Z,45.74
2022-12-01T00:55:16.591Z,45.76
2022-12-01T00:57:49.470Z,45.56
2022-12-01T01:00:21.288Z,45.62
2022-12-01T01:02:51.912Z,45.57
2022-12-01T01:05:22.223Z,45.79
2022-12-01T01:07:52.606Z,45.62
2022-12-01T01:10:23.148Z,45.94
2022-12-01T01:12:55.176Z,45.79
2022-12-01T01:15:25.223Z,45.69
2022-12-01T01:17:55.583Z,45.88
2022-12-01T01:20:26.233Z,45.79
2022-12-01T01:22:56.987Z,45.77
2022-12-01T01:25:27.159Z,45.68
2022-12-01T01:27:58.561Z,45.82
2022-12-01T01:30:29.290Z,46.16
2022-12-01T01:32:59.852Z,45.81
2022-12-01T01:35:30.463Z,45.67
2022-12-01T01:38:00.565Z,45.79
2022-12-01T01:40:31.305Z,45.52
2022-12-01T01:43:03.470Z,45.88
2022-12-01T01:45:34.505Z,45.60
2022-12-01T01:48:05.334Z,45.70
2022-12-01T01:50:35.634Z,45.72
2022-12-01T01:53:12.944Z,45.62
2022-12-01T01:55:44.041Z,45.60
2022-12-01T01:58:16.113Z,45.89
2022-12-01T02:00:48.427Z,46.30
2022-12-01T02:03:21.884Z,45.98
2022-12-01T02:06:00.514Z,46.13
2022-12-01T02:08:36.563Z,46.10
2022-12-01T02:11:36.514Z,45.95
2022-12-01T02:14:42.224Z,45.89
2022-12-01T02:17:35.291Z,46.10
2022-12-01T02:20:48.231Z,45.97
2022-12-01T02:24:10.815Z,45.88
2022-12-01T02:26:53.018Z,45.79
2022-12-01T02:30:07.477Z,45.67
2022-12-01T02:33:03.062Z,46.18
2022-12-01T02:35:46.692Z,45.92
2022-12-01T02:38:27.539Z,45.93
2022-12-01T02:41:17.301Z,46.30
2022-12-01T02:43:56.249Z,46.00
2022-12-01T02:46:35.003Z,46.14
2022-12-01T02:49:15.520Z,45.96
2022-12-01T02:51:47.936Z,45.73
2022-12-01T02:54:19.659Z,45.84
2022-12-01T02:56:54.734Z,46.22
2022-12-01T02:59:25.229Z,45.73
2022-12-01T03:02:10.936Z,45.97
2022-12-01T03:05:07.376Z,45.97
2022-12-01T03:07:59.935Z,46.16
2022-12-01T03:10:45.528Z,46.00
2022-12-01T03:13:39.967Z,45.72
2022-12-01T03:16:15.790Z,46.03
2022-12-01T03:18:57.518Z,45.96
2022-12-01T03:21:38.044Z,45.72
2022-12-01T03:24:19.686Z,45.79
2022-12-01T03:26:57.775Z,45.75
2022-12-01T03:29:34.899Z,45.58
2022-12-01T03:32:13.303Z,45.67
2022-12-01T03:34:51.709Z,45.50
2022-12-01T03:37:33.131Z,45.72
2022-12-01T03:40:07.656Z,45.79
2022-12-01T03:42:43.562Z,45.68
2022-12-01T03:45:21.147Z,45.75
2022-12-01T03:47:52.134Z,45.71
2022-12-01T03:50:23.083Z,45.78
2022-12-01T03:53:09.408Z,45.82
2022-12-01T03:55:47.224Z,45.77
2022-12-01T03:58:33.841Z,45.61
2022-12-01T04:01:07.554Z,45.78
2022-12-01T04:03:38.900Z,45.42
2022-12-01T04:06:09.869Z,45.36
2022-12-01T04:08:42.799Z,45.55
2022-12-01T04:11:32.847Z,45.68
2022-12-01T04:14:04.138Z,45.48
2022-12-01T04:16:34.811Z,45.69
2022-12-01T04:19:05.328Z,45.81
2022-12-01T04:21:36.134Z,45.79
2022-12-01T04:24:09.176Z,45.47
2022-12-01T04:26:40.895Z,45.63
2022-12-01T04:29:14.715Z,45.87
2022-12-01T04:31:45.305Z,45.84
2022-12-01T04:34:15.867Z,45.62
2022-12-01T04:36:47.092Z,45.88
2022-12-01T04:39:20.310Z,45.59
2022-12-01T04:41:51.235Z,45.28
2022-12-01T04:44:22.212Z,45.70
2022-12-01T04:46:54.965Z,45.45
2022-12-01T04:49:25.934Z,45.99
2022-12-01T04:51:56.501Z,45.47
2022-12-01T04:54:29.516Z,45.65
2022-12-01T04:57:00.180Z,45.87
2022-12-01T04:59:30.800Z,46.01
2022-12-01T05:02:03.145Z,45.61
2022-12-01T05:04:34.621Z,45.80
2022-12-01T05:07:05.085Z,45.73
2022-12-01T05:09:40.080Z,45.82
2022-12-01T05:12:11.063Z,45.83
2022-12-01T05:14:41.315Z,45.64
2022-12-01T05:17:11.694Z,45.83
2022-12-01T05:20:00.933Z,45.79
2022-12-01T05:22:57.250Z,45.63
2022-12-01T05:25:23.156Z,45.75
2022-12-01T05:27:53.687Z,46.16
2022-12-01T05:30:28.351Z,45.89
2022-12-01T05:32:59.653Z,45.88
2022-12-01T05:35:30.207Z,45.84
2022-12-01T05:38:06.069Z,45.78
2022-12-01T05:40:40.595Z,46.06
2022-12-01T05:43:11.307Z,45.99
2022-12-01T05:45:41.872Z,45.94
2022-12-01T05:48:12.730Z,45.57
2022-12-01T05:50:43.189Z,45.47
2022-12-01T05:53:16.819Z,45.44
2022-12-01T05:55:49.118Z,45.97
2022-12-01T05:58:19.593Z,46.35
2022-12-01T06:00:50.582Z,46.53
2022-12-01T06:03:20.991Z,46.77
2022-12-01T06:05:51.138Z,47.02
2022-12-01T06:08:21.739Z,47.13
2022-12-01T06:10:54.812Z,47.49
2022-12-01T06:13:25.921Z,47.06
2022-12-01T06:16:01.421Z,47.10
2022-12-01T06:18:36.199Z,47.36
2022-12-01T06:21:18.174Z,47.41
2022-12-01T06:23:47.773Z,47.33
2022-12-01T06:26:19.932Z,47.45
2022-12-01T06:28:49.912Z,47.27
2022-12-01T06:31:20.776Z,47.16
2022-12-01T06:33:51.213Z,46.85
2022-12-01T06:36:21.777Z,46.92
2022-12-01T06:38:52.338Z,46.40
2022-12-01T06:41:24.813Z,46.15
2022-12-01T06:43:55.777Z,46.07
2022-12-01T06:46:26.520Z,45.98
2022-12-01T06:48:57.046Z,46.07
2022-12-01T06:51:36.250Z,45.74
2022-12-01T06:54:06.896Z,45.40
2022-12-01T06:56:39.473Z,45.59
2022-12-01T06:59:10.785Z,45.48
2022-12-01T07:01:41.441Z,45.67
2022-12-01T07:04:11.944Z,45.86
2022-12-01T07:06:42.660Z,45.49
2022-12-01T07:09:13.403Z,44.76
2022-12-01T07:11:46.040Z,44.83
2022-12-01T07:14:27.555Z,44.86
2022-12-01T07:16:58.177Z,44.23
2022-12-01T07:19:28.958Z,44.26
2022-12-01T07:22:05.423Z,43.61
2022-12-01T07:24:36.836Z,43.45
2022-12-01T07:27:09.518Z,43.43
2022-12-01T07:29:39.473Z,43.85
2022-12-01T07:32:09.434Z,43.71
2022-12-01T07:34:40.095Z,43.29
2022-12-01T07:37:10.651Z,42.88
2022-12-01T07:39:40.785Z,43.27
2022-12-01T07:42:12.777Z,42.86
2022-12-01T07:44:43.250Z,42.19
2022-12-01T07:47:17.273Z,42.01
2022-12-01T07:49:47.790Z,42.01
2022-12-01T07:52:18.338Z,42.01
2022-12-01T07:54:48.812Z,42.58
2022-12-01T07:57:20.908Z,42.71
2022-12-01T07:59:51.354Z,42.41
2022-12-01T08:02:21.577Z,42.56
2022-12-01T08:04:51.589Z,42.65
2022-12-01T08:07:26.005Z,42.64
2022-12-01T08:09:58.499Z,42.56
2022-12-01T08:12:31.036Z,41.83
2022-12-01T08:15:01.318Z,41.64
2022-12-01T08:17:31.806Z,41.45
2022-12-01T08:20:02.335Z,41.19
2022-12-01T08:22:32.785Z,40.81
2022-12-01T08:25:03.465Z,40.41
2022-12-01T08:27:35.698Z,39.77
2022-12-01T08:30:06.273Z,39.43
2022-12-01T08:32:36.485Z,38.61
2022-12-01T08:35:07.326Z,37.91
2022-12-01T08:37:37.728Z,36.95
2022-12-01T08:40:10.544Z,36.07
2022-12-01T08:42:42.437Z,35.47
2022-12-01T08:45:14.591Z,34.77
2022-12-01T08:47:45.639Z,34.51
2022-12-01T08:50:16.305Z,34.20
2022-12-01T08:52:47.050Z,34.10
2022-12-01T08:55:17.492Z,33.93
2022-12-01T08:57:49.706Z,33.23
2022-12-01T09:00:19.811Z,33.43
2022-12-01T09:02:50.756Z,33.18
2022-12-01T09:05:21.008Z,32.87
2022-12-01T09:08:12.103Z,33.04
2022-12-01T09:10:42.765Z,33.36
2022-12-01T09:13:15.740Z,32.50
2022-12-01T09:15:45.907Z,33.25
2022-12-01T09:18:15.677Z,33.21
2022-12-01T09:20:46.291Z,33.42
2022-12-01T09:23:16.316Z,33.43
2022-12-01T09:25:46.938Z,33.77
2022-12-01T09:28:20.909Z,33.90
2022-12-01T09:30:53.756Z,33.39
2022-12-01T09:33:24.257Z,33.22
2022-12-01T09:35:55.250Z,33.46
2022-12-01T09:38:25.226Z,32.80
2022-12-01T09:40:56.742Z,33.14
2022-12-01T09:43:43.227Z,32.44
2022-12-01T09:46:22.083Z,32.45
2022-12-01T09:48:54.582Z,32.38
2022-12-01T09:51:28.587Z,32.33
2022-12-01T09:54:02.993Z,32.21
2022-12-01T09:56:41.717Z,32.69
2022-12-01T09:59:23.957Z,32.24
2022-12-01T10:02:00.207Z,32.01
2022-12-01T10:04:38.456Z,32.60
2022-12-01T10:07:19.767Z,32.60
2022-12-01T10:09:57.953Z,32.51
2022-12-01T10:12:32.662Z,32.37
2022-12-01T10:15:32.835Z,32.48
2022-12-01T10:18:23.253Z,32.55
2022-12-01T10:21:04.534Z,32.35
2022-12-01T10:24:16.636Z,32.62
2022-12-01T10:26:58.248Z,32.55
2022-12-01T10:29:47.416Z,32.54
2022-12-01T10:32:23.107Z,32.90
2022-12-01T10:34:53.599Z,32.67
2022-12-01T10:37:30.155Z,32.67
2022-12-01T10:40:02.464Z,32.50
2022-12-01T10:42:39.769Z,32.92
2022-12-01T10:45:17.347Z,32.90
2022-12-01T10:48:16.612Z,32.72
2022-12-01T10:50:50.352Z,32.58
2022-12-01T10:53:32.886Z,32.99
2022-12-01T10:56:13.389Z,32.35
2022-12-01T10:58:51.776Z,32.36
2022-12-01T11:01:27.602Z,32.73
2022-12-01T11:04:07.180Z,32.87
2022-12-01T11:06:40.139Z,32.91
2022-12-01T11:09:41.379Z,32.74
2022-12-01T11:12:20.998Z,32.89
2022-12-01T11:14:56.428Z,32.79
2022-12-01T11:17:34.356Z,33.24
2022-12-01T11:20:34.779Z,33.33
2022-12-01T11:23:39.160Z,33.00
2022-12-01T11:26:16.894Z,33.34
2022-12-01T11:29:02.666Z,32.90
2022-12-01T11:31:44.049Z,33.40
2022-12-01T11:34:26.146Z,33.21
2022-12-01T11:37:02.416Z,33.22
2022-12-01T11:39:37.971Z,33.46
2022-12-01T11:42:23.293Z,33.42
2022-12-01T11:44:57.967Z,33.38
2022-12-01T11:47:30.470Z,33.32
2022-12-01T11:50:03.410Z,33.44
2022-12-01T11:52:47.541Z,33.43
2022-12-01T11:55:25.498Z,33.75
2022-12-01T11:58:00.731Z,33.56
2022-12-01T12:00:39.373Z,33.59
2022-12-01T12:03:27.955Z,33.60
2022-12-01T12:06:40.741Z,33.46
2022-12-01T12:09:53.625Z,33.88
2022-12-01T12:12:42.038Z,33.78
2022-12-01T12:15:32.666Z,33.85
2022-12-01T12:18:34.491Z,33.83
2022-12-01T12:21:22.109Z,34.04
2022-12-01T12:24:39.982Z,33.83
2022-12-01T12:27:29.722Z,33.98
2022-12-01T12:30:23.230Z,33.85
2022-12-01T12:33:50.782Z,33.76
2022-12-01T12:36:38.714Z,33.91
2022-12-01T12:39:31.841Z,34.19
2022-12-01T12:42:09.373Z,34.18
2022-12-01T12:44:54.255Z,34.15
2022-12-01T12:48:03.737Z,34.24
2022-12-01T12:50:49.641Z,33.89
2022-12-01T12:53:31.960Z,34.25
2022-12-01T12:56:11.497Z,34.00
2022-12-01T12:58:52.973Z,34.16
2022-12-01T13:01:34.768Z,34.10
2022-12-01T13:04:17.213Z,34.57
2022-12-01T13:07:00.594Z,34.16
2022-12-01T13:09:40.334Z,34.31
2022-12-01T13:12:17.156Z,34.24
2022-12-01T13:15:01.269Z,34.38
2022-12-01T13:17:42.924Z,34.43
2022-12-01T13:20:19.810Z,34.26
2022-12-01T13:22:53.192Z,34.36
2022-12-01T13:25:31.283Z,34.50
2022-12-01T13:28:09.858Z,34.60
2022-12-01T13:30:41.747Z,34.62
2022-12-01T13:33:23.118Z,34.49
2022-12-01T13:36:30.037Z,34.69
2022-12-01T13:39:02.783Z,34.91
2022-12-01T13:41:40.120Z,34.71
2022-12-01T13:44:25.236Z,34.78
2022-12-01T13:47:06.362Z,35.05
2022-12-01T13:49:47.482Z,34.88
2022-12-01T13:52:37.116Z,34.99
2022-12-01T13:55:36.998Z,34.87
2022-12-01T13:58:45.195Z,35.19
2022-12-01T14:01:50.005Z,35.12
2022-12-01T14:04:38.506Z,34.97
2022-12-01T14:07:39.914Z,35.09
2022-12-01T14:10:35.094Z,35.32
2022-12-01T14:13:11.512Z,35.22
2022-12-01T14:15:47.875Z,35.38
2022-12-01T14:18:37.930Z,35.29
2022-12-01T14:21:15.606Z,35.16
2022-12-01T14:24:12.604Z,35.32
2022-12-01T14:26:50.040Z,35.33
2022-12-01T14:29:40.571Z,35.34
2022-12-01T14:32:29.981Z,35.44
2022-12-01T14:35:17.260Z,35.37
2022-12-01T14:37:52.925Z,35.32
2022-12-01T14:40:33.619Z,35.44
2022-12-01T14:43:39.260Z,35.41
2022-12-01T14:46:16.152Z,35.30
2022-12-01T14:48:49.533Z,35.56
2022-12-01T14:51:31.172Z,35.66
2022-12-01T14:54:10.521Z,35.38
2022-12-01T14:56:49.315Z,35.43
2022-12-01T14:59:27.132Z,35.44
2022-12-01T15:02:09.502Z,35.42
2022-12-01T15:05:12.643Z,35.56
2022-12-01T15:07:46.115Z,35.65
2022-12-01T15:10:22.720Z,35.76
2022-12-01T15:12:57.452Z,35.70
2022-12-01T15:15:29.950Z,35.50
2022-12-01T15:18:09.831Z,35.72
2022-12-01T15:20:47.595Z,35.66
2022-12-01T15:23:19.605Z,35.75
2022-12-01T15:25:50.277Z,35.65
2022-12-01T15:28:24.058Z,35.79
2022-12-01T15:30:57.478Z,35.72
2022-12-01T15:33:37.147Z,35.85
2022-12-01T15:36:09.536Z,36.03
2022-12-01T15:38:42.939Z,35.87
2022-12-01T15:41:30.249Z,35.96
2022-12-01T15:44:05.797Z,36.01
2022-12-01T15:46:36.607Z,36.07
2022-12-01T15:49:18.877Z,36.15
2022-12-01T15:51:54.720Z,36.19
2022-12-01T15:54:29.810Z,36.02
2022-12-01T15:57:03.530Z,36.24
2022-12-01T15:59:44.420Z,36.19
2022-12-01T16:02:34.673Z,36.13
2022-12-01T16:05:20.204Z,36.18
2022-12-01T16:10:44.116Z,36.29
2022-12-01T16:13:46.434Z,36.38
2022-12-01T16:16:44.299Z,36.30
2022-12-01T16:19:35.201Z,36.40
2022-12-01T16:22:19.213Z,36.31
2022-12-01T16:24:54.399Z,36.49
2022-12-01T16:27:30.725Z,36.49
2022-12-01T16:30:07.993Z,36.56
2022-12-01T16:32:46.897Z,36.41
2022-12-01T16:35:29.860Z,36.78
2022-12-01T16:38:02.544Z,36.57
2022-12-01T16:40:34.378Z,36.41
2022-12-01T16:43:06.386Z,36.83
2022-12-01T16:45:37.902Z,36.96
2022-12-01T16:48:13.382Z,36.69
2022-12-01T16:50:46.683Z,37.00
2022-12-01T16:53:20.849Z,36.85
2022-12-01T16:55:59.026Z,36.96
2022-12-01T16:58:30.845Z,36.78
2022-12-01T17:01:03.310Z,37.16
2022-12-01T17:03:40.082Z,36.85
2022-12-01T17:06:15.937Z,36.98
2022-12-01T17:08:48.707Z,37.16
2022-12-01T17:11:22.977Z,37.02
2022-12-01T17:13:56.342Z,36.94
2022-12-01T17:16:29.170Z,37.12
2022-12-01T17:19:06.139Z,37.08
2022-12-01T17:21:39.034Z,37.31
2022-12-01T17:24:14.979Z,37.37
2022-12-01T17:26:48.644Z,37.33
2022-12-01T17:29:21.171Z,37.20
2022-12-01T17:31:54.399Z,37.39
2022-12-01T17:34:28.710Z,37.32
2022-12-01T17:37:01.710Z,37.31
2022-12-01T17:39:32.930Z,37.45
2022-12-01T17:42:04.658Z,37.52
2022-12-01T17:44:37.205Z,37.52
2022-12-01T17:47:09.229Z,37.54
2022-12-01T17:49:46.084Z,37.60
2022-12-01T17:52:18.983Z,37.60
2022-12-01T17:54:51.392Z,37.74
2022-12-01T17:57:23.267Z,37.72
2022-12-01T17:59:53.885Z,37.74
2022-12-01T18:02:24.654Z,37.87
2022-12-01T18:04:57.412Z,37.96
2022-12-01T18:07:27.931Z,37.81
2022-12-01T18:09:58.589Z,37.92
2022-12-01T18:12:28.694Z,37.98
2022-12-01T18:14:58.483Z,38.05
2022-12-01T18:17:30.152Z,37.89
2022-12-01T18:20:02.987Z,38.04
2022-12-01T18:22:33.422Z,38.16
2022-12-01T18:25:03.669Z,38.23
2022-12-01T18:27:35.087Z,38.29
2022-12-01T18:30:09.180Z,38.39
2022-12-01T18:32:41.706Z,38.44
2022-12-01T18:35:26.248Z,38.56
2022-12-01T18:37:59.885Z,38.51
2022-12-01T18:40:32.212Z,38.67
2022-12-01T18:43:02.046Z,38.65
2022-12-01T18:45:33.402Z,38.58
2022-12-01T18:48:03.720Z,38.62
2022-12-01T18:50:37.101Z,38.65
2022-12-01T18:53:07.508Z,38.58
2022-12-01T18:55:41.309Z,38.81
2022-12-01T18:58:13.181Z,38.66
2022-12-01T19:00:46.385Z,38.92
2022-12-01T19:03:18.144Z,38.92
2022-12-01T19:05:50.140Z,38.82
2022-12-01T19:08:23.701Z,38.88
2022-12-01T19:11:02.650Z,38.79
2022-12-01T19:13:35.264Z,38.80
2022-12-01T19:16:11.082Z,39.02
2022-12-01T19:18:42.758Z,38.95
2022-12-01T19:21:18.184Z,38.57
2022-12-01T19:23:50.802Z,38.67
2022-12-01T19:26:26.595Z,38.84
2022-12-01T19:29:00.078Z,38.94
2022-12-01T19:31:30.969Z,39.09
2022-12-01T19:34:02.433Z,38.66
2022-12-01T19:36:36.468Z,38.92
2022-12-01T19:39:08.627Z,38.84
2022-12-01T19:41:39.388Z,39.00
2022-12-01T19:44:13.114Z,38.90
2022-12-01T19:46:46.120Z,39.07
2022-12-01T19:49:18.700Z,39.02
2022-12-01T19:51:53.698Z,38.99
2022-12-01T19:54:26.524Z,38.95
2022-12-01T19:56:57.994Z,38.65
2022-12-01T19:59:29.905Z,38.92
2022-12-01T20:02:03.989Z,39.15
2022-12-01T20:04:37.252Z,39.09
2022-12-01T20:07:10.135Z,38.93
2022-12-01T20:09:46.958Z,38.96
2022-12-01T20:12:20.564Z,39.12
2022-12-01T20:14:50.913Z,38.86
2022-12-01T20:17:21.902Z,39.05
2022-12-01T20:19:53.315Z,38.85
2022-12-01T20:22:26.380Z,39.16
2022-12-01T20:24:57.361Z,39.01
2022-12-01T20:27:30.033Z,39.13
2022-12-01T20:30:02.198Z,39.18
2022-12-01T20:32:35.282Z,39.09
2022-12-01T20:35:06.992Z,39.08
2022-12-01T20:37:41.295Z,39.23
2022-12-01T20:40:15.464Z,39.24
2022-12-01T20:42:46.165Z,39.25
2022-12-01T20:45:17.588Z,39.27
2022-12-01T20:47:48.213Z,39.07
2022-12-01T20:50:18.729Z,39.15
2022-12-01T20:52:51.868Z,39.34
2022-12-01T20:55:24.920Z,39.21
2022-12-01T20:57:55.905Z,39.45
2022-12-01T21:00:26.553Z,39.52
2022-12-01T21:03:00.069Z,39.20
2022-12-01T21:05:33.616Z,39.59
2022-12-01T21:08:05.563Z,39.28
2022-12-01T21:10:38.508Z,39.60
2022-12-01T21:13:40.271Z,39.41
2022-12-01T21:16:21.444Z,39.46
2022-12-01T21:18:55.909Z,39.50
2022-12-01T21:21:30.384Z,39.54
2022-12-01T21:24:19.142Z,39.60
2022-12-01T21:26:55.911Z,39.55
2022-12-01T21:29:28.923Z,39.63
2022-12-01T21:32:07.243Z,39.69
2022-12-01T21:34:38.082Z,39.69
2022-12-01T21:37:21.196Z,39.80
2022-12-01T21:39:55.407Z,39.61
2022-12-01T21:42:30.142Z,39.64
2022-12-01T21:45:00.660Z,39.39
2022-12-01T21:47:33.778Z,39.70
2022-12-01T21:50:20.244Z,39.66
2022-12-01T21:52:50.830Z,39.75
2022-12-01T21:55:41.550Z,39.70
2022-12-01T21:58:30.557Z,39.66
2022-12-01T22:01:02.407Z,39.98
2022-12-01T22:03:41.477Z,39.84
2022-12-01T22:06:32.210Z,39.76
2022-12-01T22:09:16.945Z,39.71
2022-12-01T22:11:55.431Z,39.81
2022-12-01T22:14:29.612Z,39.55
2022-12-01T22:17:04.528Z,39.64
2022-12-01T22:19:37.176Z,39.80
2022-12-01T22:22:26.293Z,39.62
2022-12-01T22:25:02.137Z,39.81
2022-12-01T22:27:38.166Z,40.02
2022-12-01T22:30:21.315Z,39.73
2022-12-01T22:32:59.563Z,39.83
2022-12-01T22:35:36.474Z,39.73
2022-12-01T22:38:40.917Z,40.12
2022-12-01T22:41:16.148Z,39.73
2022-12-01T22:44:03.127Z,40.02
2022-12-01T22:46:35.783Z,39.81
2022-12-01T22:49:20.538Z,40.04
2022-12-01T22:51:51.893Z,39.71
2022-12-01T22:54:32.463Z,40.39
2022-12-01T22:57:20.196Z,39.98
2022-12-01T22:59:51.924Z,40.01
2022-12-01T23:02:26.190Z,39.82
2022-12-01T23:05:01.721Z,40.12
2022-12-01T23:07:38.588Z,39.71
2022-12-01T23:10:16.615Z,40.24
2022-12-01T23:12:48.751Z,39.95
2022-12-01T23:15:27.670Z,40.10
2022-12-01T23:17:58.378Z,40.15
2022-12-01T23:20:34.573Z,39.89
2022-12-01T23:23:16.394Z,40.04
2022-12-01T23:25:49.662Z,39.77
2022-12-01T23:28:20.572Z,40.42
2022-12-01T23:30:57.319Z,40.11
2022-12-01T23:33:31.589Z,39.86
2022-12-01T23:36:13.804Z,40.33
2022-12-01T23:38:48.145Z,40.12
2022-12-01T23:41:26.024Z,39.98
2022-12-01T23:44:11.806Z,40.31
2022-12-01T23:46:44.700Z,40.30
2022-12-01T23:49:18.970Z,40.34
2022-12-01T23:51:53.308Z,40.41
2022-12-01T23:54:27.888Z,40.27
2022-12-01T23:57:03.353Z,40.63
2022-12-01T23:59:34.999Z,40.52
